sensor_id;sensor_type;location;lat;lon;timestamp;P1;durP1;ratioP1;P2;durP2;ratioP2
12585;SDS011;6358;50.760;0.282;2024-01-15T00:00:45;1.17;;;1.07;;
12585;SDS011;6358;50.760;0.282;2024-01-15T00:03:12;2.27;;;1.20;;
12585;SDS011;6358;50.760;0.282;2024-01-15T00:05:38;1.73;;;1.10;;
12585;SDS011;6358;50.760;0.282;2024-01-15T00:08:04;1.20;;;1.10;;
12585;SDS011;6358;50.760;0.282;2024-01-15T00:10:30;1.73;;;1.10;;
12585;SDS011;6358;50.760;0.282;2024-01-15T00:12:56;2.20;;;1.10;;
12585;SDS011;6358;50.760;0.282;2024-01-15T00:15:23;1.63;;;1.10;;
12585;SDS011;6358;50.760;0.282;2024-01-15T00:17:49;1.47;;;1.10;;
12585;SDS011;6358;50.760;0.282;2024-01-15T00:20:15;1.50;;;1.17;;
12585;SDS011;6358;50.760;0.282;2024-01-15T00:22:41;1.20;;;1.00;;
12585;SDS011;6358;50.760;0.282;2024-01-15T00:25:07;1.60;;;1.17;;
12585;SDS011;6358;50.760;0.282;2024-01-15T00:27:33;2.53;;;1.20;;
12585;SDS011;6358;50.760;0.282;2024-01-15T00:30:00;1.70;;;1.03;;
12585;SDS011;6358;50.760;0.282;2024-01-15T00:32:26;1.30;;;1.00;;
12585;SDS011;6358;50.760;0.282;2024-01-15T00:34:52;1.67;;;1.13;;
12585;SDS011;6358;50.760;0.282;2024-01-15T00:37:18;1.20;;;1.10;;
12585;SDS011;6358;50.760;0.282;2024-01-15T00:39:44;1.30;;;1.03;;
12585;SDS011;6358;50.760;0.282;2024-01-15T00:42:10;0.90;;;0.90;;
12585;SDS011;6358;50.760;0.282;2024-01-15T00:44:36;1.10;;;1.00;;
12585;SDS011;6358;50.760;0.282;2024-01-15T00:47:02;1.40;;;1.30;;
12585;SDS011;6358;50.760;0.282;2024-01-15T00:49:29;3.83;;;1.10;;
12585;SDS011;6358;50.760;0.282;2024-01-15T00:51:55;1.10;;;1.00;;
12585;SDS011;6358;50.760;0.282;2024-01-15T00:54:21;1.43;;;1.00;;
12585;SDS011;6358;50.760;0.282;2024-01-15T00:56:47;2.07;;;1.07;;
12585;SDS011;6358;50.760;0.282;2024-01-15T00:59:13;0.77;;;0.77;;
12585;SDS011;6358;50.760;0.282;2024-01-15T01:01:42;3.13;;;1.10;;
12585;SDS011;6358;50.760;0.282;2024-01-15T01:04:09;1.33;;;0.90;;
12585;SDS011;6358;50.760;0.282;2024-01-15T01:06:35;0.80;;;0.80;;
12585;SDS011;6358;50.760;0.282;2024-01-15T01:09:01;0.90;;;0.90;;
12585;SDS011;6358;50.760;0.282;2024-01-15T01:11:28;1.10;;;1.00;;
12585;SDS011;6358;50.760;0.282;2024-01-15T01:13:54;1.33;;;1.20;;
12585;SDS011;6358;50.760;0.282;2024-01-15T01:16:21;1.13;;;1.03;;
12585;SDS011;6358;50.760;0.282;2024-01-15T01:18:47;1.07;;;0.97;;
12585;SDS011;6358;50.760;0.282;2024-01-15T01:21:14;1.00;;;0.90;;
12585;SDS011;6358;50.760;0.282;2024-01-15T01:23:40;1.20;;;1.10;;
12585;SDS011;6358;50.760;0.282;2024-01-15T01:26:06;0.90;;;0.90;;
12585;SDS011;6358;50.760;0.282;2024-01-15T01:28:32;1.00;;;0.83;;
12585;SDS011;6358;50.760;0.282;2024-01-15T01:30:58;1.43;;;1.00;;
12585;SDS011;6358;50.760;0.282;2024-01-15T01:33:26;1.00;;;0.90;;
12585;SDS011;6358;50.760;0.282;2024-01-15T01:35:52;0.90;;;0.90;;
12585;SDS011;6358;50.760;0.282;2024-01-15T01:38:18;0.90;;;0.90;;
12585;SDS011;6358;50.760;0.282;2024-01-15T01:40:44;1.00;;;1.00;;
12585;SDS011;6358;50.760;0.282;2024-01-15T01:43:10;0.90;;;0.90;;
12585;SDS011;6358;50.760;0.282;2024-01-15T01:45:37;1.23;;;1.00;;
12585;SDS011;6358;50.760;0.282;2024-01-15T01:48:04;1.77;;;0.83;;
12585;SDS011;6358;50.760;0.282;2024-01-15T01:50:30;1.00;;;1.00;;
12585;SDS011;6358;50.760;0.282;2024-01-15T01:52:57;1.20;;;0.80;;
12585;SDS011;6358;50.760;0.282;2024-01-15T01:55:24;0.80;;;0.80;;
12585;SDS011;6358;50.760;0.282;2024-01-15T01:57:52;1.10;;;1.00;;
12585;SDS011;6358;50.760;0.282;2024-01-15T02:00:18;0.90;;;0.90;;
12585;SDS011;6358;50.760;0.282;2024-01-15T02:02:44;0.77;;;0.77;;
12585;SDS011;6358;50.760;0.282;2024-01-15T02:05:11;2.00;;;1.07;;
12585;SDS011;6358;50.760;0.282;2024-01-15T02:07:38;1.03;;;1.03;;
12585;SDS011;6358;50.760;0.282;2024-01-15T02:10:04;0.80;;;0.80;;
12585;SDS011;6358;50.760;0.282;2024-01-15T02:12:31;1.00;;;0.90;;
12585;SDS011;6358;50.760;0.282;2024-01-15T02:14:57;0.90;;;0.90;;
12585;SDS011;6358;50.760;0.282;2024-01-15T02:17:23;0.70;;;0.70;;
12585;SDS011;6358;50.760;0.282;2024-01-15T02:19:49;0.80;;;0.80;;
12585;SDS011;6358;50.760;0.282;2024-01-15T02:22:16;0.90;;;0.90;;
12585;SDS011;6358;50.760;0.282;2024-01-15T02:24:42;0.87;;;0.87;;
12585;SDS011;6358;50.760;0.282;2024-01-15T02:27:08;0.93;;;0.93;;
12585;SDS011;6358;50.760;0.282;2024-01-15T02:29:34;1.00;;;0.90;;
12585;SDS011;6358;50.760;0.282;2024-01-15T02:32:04;0.80;;;0.80;;
12585;SDS011;6358;50.760;0.282;2024-01-15T02:34:33;1.07;;;0.97;;
12585;SDS011;6358;50.760;0.282;2024-01-15T02:36:59;1.30;;;0.87;;
12585;SDS011;6358;50.760;0.282;2024-01-15T02:39:25;0.80;;;0.80;;
12585;SDS011;6358;50.760;0.282;2024-01-15T02:41:51;0.90;;;0.90;;
12585;SDS011;6358;50.760;0.282;2024-01-15T02:44:17;0.97;;;0.97;;
12585;SDS011;6358;50.760;0.282;2024-01-15T02:46:43;0.83;;;0.80;;
12585;SDS011;6358;50.760;0.282;2024-01-15T02:49:09;1.20;;;1.10;;
12585;SDS011;6358;50.760;0.282;2024-01-15T02:51:36;1.07;;;1.00;;
12585;SDS011;6358;50.760;0.282;2024-01-15T02:54:02;0.90;;;0.90;;
12585;SDS011;6358;50.760;0.282;2024-01-15T02:56:28;0.90;;;0.90;;
12585;SDS011;6358;50.760;0.282;2024-01-15T02:58:54;1.13;;;1.03;;
12585;SDS011;6358;50.760;0.282;2024-01-15T03:01:20;0.93;;;0.80;;
12585;SDS011;6358;50.760;0.282;2024-01-15T03:03:47;1.23;;;0.87;;
12585;SDS011;6358;50.760;0.282;2024-01-15T03:06:13;0.97;;;0.73;;
12585;SDS011;6358;50.760;0.282;2024-01-15T03:08:39;1.10;;;1.00;;
12585;SDS011;6358;50.760;0.282;2024-01-15T03:11:05;0.80;;;0.80;;
12585;SDS011;6358;50.760;0.282;2024-01-15T03:13:31;1.10;;;0.83;;
12585;SDS011;6358;50.760;0.282;2024-01-15T03:16:01;0.70;;;0.70;;
12585;SDS011;6358;50.760;0.282;2024-01-15T03:18:27;0.83;;;0.83;;
12585;SDS011;6358;50.760;0.282;2024-01-15T03:20:53;0.87;;;0.80;;
12585;SDS011;6358;50.760;0.282;2024-01-15T03:23:20;0.73;;;0.73;;
12585;SDS011;6358;50.760;0.282;2024-01-15T03:25:46;1.10;;;1.00;;
12585;SDS011;6358;50.760;0.282;2024-01-15T03:28:12;0.90;;;0.90;;
12585;SDS011;6358;50.760;0.282;2024-01-15T03:30:38;0.80;;;0.80;;
12585;SDS011;6358;50.760;0.282;2024-01-15T03:33:04;0.80;;;0.80;;
12585;SDS011;6358;50.760;0.282;2024-01-15T03:35:33;0.67;;;0.67;;
12585;SDS011;6358;50.760;0.282;2024-01-15T03:37:59;1.50;;;0.80;;
12585;SDS011;6358;50.760;0.282;2024-01-15T03:40:25;0.93;;;0.87;;
12585;SDS011;6358;50.760;0.282;2024-01-15T03:42:51;1.30;;;0.90;;
12585;SDS011;6358;50.760;0.282;2024-01-15T03:45:17;0.80;;;0.77;;
12585;SDS011;6358;50.760;0.282;2024-01-15T03:47:43;0.97;;;0.93;;
12585;SDS011;6358;50.760;0.282;2024-01-15T03:50:12;0.80;;;0.80;;
12585;SDS011;6358;50.760;0.282;2024-01-15T03:52:38;1.00;;;0.90;;
12585;SDS011;6358;50.760;0.282;2024-01-15T03:55:04;0.70;;;0.70;;
12585;SDS011;6358;50.760;0.282;2024-01-15T03:57:31;1.10;;;1.00;;
12585;SDS011;6358;50.760;0.282;2024-01-15T03:59:57;0.73;;;0.73;;
12585;SDS011;6358;50.760;0.282;2024-01-15T04:02:23;0.90;;;0.90;;
12585;SDS011;6358;50.760;0.282;2024-01-15T04:04:49;0.73;;;0.73;;
12585;SDS011;6358;50.760;0.282;2024-01-15T04:07:15;0.73;;;0.73;;
12585;SDS011;6358;50.760;0.282;2024-01-15T04:09:41;1.20;;;1.00;;
12585;SDS011;6358;50.760;0.282;2024-01-15T04:12:07;0.80;;;0.80;;
12585;SDS011;6358;50.760;0.282;2024-01-15T04:14:33;1.27;;;0.90;;
12585;SDS011;6358;50.760;0.282;2024-01-15T04:16:59;0.70;;;0.70;;
12585;SDS011;6358;50.760;0.282;2024-01-15T04:19:26;0.83;;;0.83;;
12585;SDS011;6358;50.760;0.282;2024-01-15T04:21:52;0.87;;;0.87;;
12585;SDS011;6358;50.760;0.282;2024-01-15T04:24:18;0.77;;;0.77;;
12585;SDS011;6358;50.760;0.282;2024-01-15T04:26:45;0.80;;;0.80;;
12585;SDS011;6358;50.760;0.282;2024-01-15T04:29:11;0.90;;;0.90;;
12585;SDS011;6358;50.760;0.282;2024-01-15T04:31:37;0.83;;;0.83;;
12585;SDS011;6358;50.760;0.282;2024-01-15T04:34:03;1.13;;;0.80;;
12585;SDS011;6358;50.760;0.282;2024-01-15T04:36:29;0.80;;;0.80;;
12585;SDS011;6358;50.760;0.282;2024-01-15T04:38:55;0.70;;;0.70;;
12585;SDS011;6358;50.760;0.282;2024-01-15T04:41:21;1.43;;;0.80;;
12585;SDS011;6358;50.760;0.282;2024-01-15T04:43:48;2.17;;;0.77;;
12585;SDS011;6358;50.760;0.282;2024-01-15T04:46:14;1.40;;;0.90;;
12585;SDS011;6358;50.760;0.282;2024-01-15T04:48:40;1.17;;;1.00;;
12585;SDS011;6358;50.760;0.282;2024-01-15T04:51:08;1.00;;;1.00;;
12585;SDS011;6358;50.760;0.282;2024-01-15T04:53:34;0.70;;;0.70;;
12585;SDS011;6358;50.760;0.282;2024-01-15T04:56:01;0.83;;;0.83;;
12585;SDS011;6358;50.760;0.282;2024-01-15T04:58:27;0.60;;;0.60;;
12585;SDS011;6358;50.760;0.282;2024-01-15T05:00:53;0.80;;;0.80;;
12585;SDS011;6358;50.760;0.282;2024-01-15T05:03:19;0.73;;;0.70;;
12585;SDS011;6358;50.760;0.282;2024-01-15T05:05:45;0.80;;;0.70;;
12585;SDS011;6358;50.760;0.282;2024-01-15T05:08:11;0.67;;;0.67;;
12585;SDS011;6358;50.760;0.282;2024-01-15T05:10:37;0.80;;;0.80;;
12585;SDS011;6358;50.760;0.282;2024-01-15T05:13:03;0.70;;;0.70;;
12585;SDS011;6358;50.760;0.282;2024-01-15T05:15:30;0.70;;;0.70;;
12585;SDS011;6358;50.760;0.282;2024-01-15T05:17:56;1.23;;;1.00;;
12585;SDS011;6358;50.760;0.282;2024-01-15T05:20:22;0.80;;;0.80;;
12585;SDS011;6358;50.760;0.282;2024-01-15T05:22:48;0.70;;;0.70;;
12585;SDS011;6358;50.760;0.282;2024-01-15T05:25:14;0.77;;;0.77;;
12585;SDS011;6358;50.760;0.282;2024-01-15T05:27:40;0.83;;;0.83;;
12585;SDS011;6358;50.760;0.282;2024-01-15T05:30:06;0.70;;;0.67;;
12585;SDS011;6358;50.760;0.282;2024-01-15T05:32:33;0.80;;;0.80;;
12585;SDS011;6358;50.760;0.282;2024-01-15T05:34:59;0.70;;;0.63;;
12585;SDS011;6358;50.760;0.282;2024-01-15T05:37:25;0.80;;;0.80;;
12585;SDS011;6358;50.760;0.282;2024-01-15T05:39:51;0.73;;;0.73;;
12585;SDS011;6358;50.760;0.282;2024-01-15T05:42:17;0.70;;;0.70;;
12585;SDS011;6358;50.760;0.282;2024-01-15T05:44:43;0.80;;;0.70;;
12585;SDS011;6358;50.760;0.282;2024-01-15T05:47:09;0.70;;;0.70;;
12585;SDS011;6358;50.760;0.282;2024-01-15T05:49:35;0.67;;;0.67;;
12585;SDS011;6358;50.760;0.282;2024-01-15T05:52:02;0.70;;;0.70;;
12585;SDS011;6358;50.760;0.282;2024-01-15T05:54:28;0.73;;;0.67;;
12585;SDS011;6358;50.760;0.282;2024-01-15T05:56:54;0.70;;;0.70;;
12585;SDS011;6358;50.760;0.282;2024-01-15T05:59:20;1.17;;;0.87;;
12585;SDS011;6358;50.760;0.282;2024-01-15T06:01:47;0.93;;;0.70;;
12585;SDS011;6358;50.760;0.282;2024-01-15T06:04:13;0.63;;;0.63;;
12585;SDS011;6358;50.760;0.282;2024-01-15T06:06:39;0.70;;;0.70;;
12585;SDS011;6358;50.760;0.282;2024-01-15T06:09:06;0.93;;;0.70;;
12585;SDS011;6358;50.760;0.282;2024-01-15T06:11:32;0.70;;;0.70;;
12585;SDS011;6358;50.760;0.282;2024-01-15T06:13:58;1.00;;;0.80;;
12585;SDS011;6358;50.760;0.282;2024-01-15T06:16:28;0.87;;;0.70;;
12585;SDS011;6358;50.760;0.282;2024-01-15T06:18:54;0.97;;;0.70;;
12585;SDS011;6358;50.760;0.282;2024-01-15T06:21:20;1.53;;;0.93;;
12585;SDS011;6358;50.760;0.282;2024-01-15T06:23:46;0.63;;;0.60;;
12585;SDS011;6358;50.760;0.282;2024-01-15T06:26:12;0.90;;;0.90;;
12585;SDS011;6358;50.760;0.282;2024-01-15T06:28:39;0.70;;;0.70;;
12585;SDS011;6358;50.760;0.282;2024-01-15T06:31:06;0.73;;;0.73;;
12585;SDS011;6358;50.760;0.282;2024-01-15T06:33:32;0.70;;;0.70;;
12585;SDS011;6358;50.760;0.282;2024-01-15T06:35:58;0.70;;;0.60;;
12585;SDS011;6358;50.760;0.282;2024-01-15T06:38:24;0.60;;;0.60;;
12585;SDS011;6358;50.760;0.282;2024-01-15T06:40:51;0.70;;;0.70;;
12585;SDS011;6358;50.760;0.282;2024-01-15T06:43:17;0.60;;;0.60;;
12585;SDS011;6358;50.760;0.282;2024-01-15T06:45:44;0.50;;;0.50;;
12585;SDS011;6358;50.760;0.282;2024-01-15T06:48:10;0.63;;;0.57;;
12585;SDS011;6358;50.760;0.282;2024-01-15T06:50:39;0.60;;;0.60;;
12585;SDS011;6358;50.760;0.282;2024-01-15T06:53:05;0.60;;;0.60;;
12585;SDS011;6358;50.760;0.282;2024-01-15T06:55:31;0.47;;;0.47;;
12585;SDS011;6358;50.760;0.282;2024-01-15T06:57:57;0.77;;;0.77;;
12585;SDS011;6358;50.760;0.282;2024-01-15T07:00:23;0.90;;;0.70;;
12585;SDS011;6358;50.760;0.282;2024-01-15T07:02:50;1.10;;;0.77;;
12585;SDS011;6358;50.760;0.282;2024-01-15T07:05:16;0.90;;;0.87;;
12585;SDS011;6358;50.760;0.282;2024-01-15T07:07:43;0.80;;;0.80;;
12585;SDS011;6358;50.760;0.282;2024-01-15T07:10:09;0.83;;;0.77;;
12585;SDS011;6358;50.760;0.282;2024-01-15T07:12:35;1.57;;;0.80;;
12585;SDS011;6358;50.760;0.282;2024-01-15T07:15:01;1.20;;;0.90;;
12585;SDS011;6358;50.760;0.282;2024-01-15T07:17:29;1.60;;;1.00;;
12585;SDS011;6358;50.760;0.282;2024-01-15T07:19:56;0.80;;;0.80;;
12585;SDS011;6358;50.760;0.282;2024-01-15T07:22:22;1.13;;;0.90;;
12585;SDS011;6358;50.760;0.282;2024-01-15T07:24:48;1.00;;;0.90;;
12585;SDS011;6358;50.760;0.282;2024-01-15T07:27:14;0.90;;;0.83;;
12585;SDS011;6358;50.760;0.282;2024-01-15T07:29:41;0.93;;;0.77;;
12585;SDS011;6358;50.760;0.282;2024-01-15T07:32:08;0.90;;;0.90;;
12585;SDS011;6358;50.760;0.282;2024-01-15T07:34:34;1.13;;;0.83;;
12585;SDS011;6358;50.760;0.282;2024-01-15T07:37:00;2.40;;;1.00;;
12585;SDS011;6358;50.760;0.282;2024-01-15T07:39:27;2.10;;;0.80;;
12585;SDS011;6358;50.760;0.282;2024-01-15T07:41:54;1.13;;;0.90;;
12585;SDS011;6358;50.760;0.282;2024-01-15T07:44:20;0.97;;;0.77;;
12585;SDS011;6358;50.760;0.282;2024-01-15T07:46:46;0.93;;;0.80;;
12585;SDS011;6358;50.760;0.282;2024-01-15T07:49:12;1.70;;;1.30;;
12585;SDS011;6358;50.760;0.282;2024-01-15T07:51:38;2.27;;;1.10;;
12585;SDS011;6358;50.760;0.282;2024-01-15T07:54:10;1.13;;;0.83;;
12585;SDS011;6358;50.760;0.282;2024-01-15T07:56:55;2.00;;;1.00;;
12585;SDS011;6358;50.760;0.282;2024-01-15T07:59:22;1.27;;;0.80;;
12585;SDS011;6358;50.760;0.282;2024-01-15T08:01:48;2.00;;;0.97;;
12585;SDS011;6358;50.760;0.282;2024-01-15T08:04:14;1.10;;;0.90;;
12585;SDS011;6358;50.760;0.282;2024-01-15T08:06:40;1.80;;;0.80;;
12585;SDS011;6358;50.760;0.282;2024-01-15T08:09:06;1.03;;;0.83;;
12585;SDS011;6358;50.760;0.282;2024-01-15T08:11:33;1.23;;;0.80;;
12585;SDS011;6358;50.760;0.282;2024-01-15T08:13:59;2.60;;;1.03;;
12585;SDS011;6358;50.760;0.282;2024-01-15T08:16:26;1.40;;;0.83;;
12585;SDS011;6358;50.760;0.282;2024-01-15T08:18:52;1.13;;;0.80;;
12585;SDS011;6358;50.760;0.282;2024-01-15T08:21:18;0.90;;;0.80;;
12585;SDS011;6358;50.760;0.282;2024-01-15T08:23:44;0.90;;;0.80;;
12585;SDS011;6358;50.760;0.282;2024-01-15T08:26:11;0.60;;;0.60;;
12585;SDS011;6358;50.760;0.282;2024-01-15T08:28:37;1.20;;;1.00;;
12585;SDS011;6358;50.760;0.282;2024-01-15T08:31:03;0.77;;;0.60;;
12585;SDS011;6358;50.760;0.282;2024-01-15T08:33:29;2.27;;;0.70;;
12585;SDS011;6358;50.760;0.282;2024-01-15T08:35:55;1.50;;;0.87;;
12585;SDS011;6358;50.760;0.282;2024-01-15T08:38:21;1.20;;;0.77;;
12585;SDS011;6358;50.760;0.282;2024-01-15T08:40:48;1.47;;;1.10;;
12585;SDS011;6358;50.760;0.282;2024-01-15T08:43:15;0.73;;;0.60;;
12585;SDS011;6358;50.760;0.282;2024-01-15T08:45:41;1.17;;;0.90;;
12585;SDS011;6358;50.760;0.282;2024-01-15T08:48:10;1.57;;;0.57;;
12585;SDS011;6358;50.760;0.282;2024-01-15T08:50:36;0.73;;;0.67;;
12585;SDS011;6358;50.760;0.282;2024-01-15T08:53:02;0.60;;;0.60;;
12585;SDS011;6358;50.760;0.282;2024-01-15T08:55:30;1.10;;;0.80;;
12585;SDS011;6358;50.760;0.282;2024-01-15T08:57:56;1.03;;;0.73;;
12585;SDS011;6358;50.760;0.282;2024-01-15T09:00:22;0.60;;;0.60;;
12585;SDS011;6358;50.760;0.282;2024-01-15T09:02:48;0.83;;;0.77;;
12585;SDS011;6358;50.760;0.282;2024-01-15T09:05:14;0.90;;;0.60;;
12585;SDS011;6358;50.760;0.282;2024-01-15T09:07:40;0.87;;;0.70;;
12585;SDS011;6358;50.760;0.282;2024-01-15T09:10:07;1.07;;;0.80;;
12585;SDS011;6358;50.760;0.282;2024-01-15T09:12:33;0.90;;;0.60;;
12585;SDS011;6358;50.760;0.282;2024-01-15T09:14:59;1.13;;;0.50;;
12585;SDS011;6358;50.760;0.282;2024-01-15T09:17:25;1.57;;;0.60;;
12585;SDS011;6358;50.760;0.282;2024-01-15T09:19:53;1.57;;;0.70;;
12585;SDS011;6358;50.760;0.282;2024-01-15T09:22:19;0.70;;;0.70;;
12585;SDS011;6358;50.760;0.282;2024-01-15T09:24:45;2.23;;;0.90;;
12585;SDS011;6358;50.760;0.282;2024-01-15T09:27:11;6.47;;;2.90;;
12585;SDS011;6358;50.760;0.282;2024-01-15T09:29:37;15.07;;;7.23;;
12585;SDS011;6358;50.760;0.282;2024-01-15T09:32:06;15.63;;;7.70;;
12585;SDS011;6358;50.760;0.282;2024-01-15T09:34:32;26.00;;;9.93;;
12585;SDS011;6358;50.760;0.282;2024-01-15T09:36:58;14.67;;;8.13;;
12585;SDS011;6358;50.760;0.282;2024-01-15T09:39:30;11.83;;;8.40;;
12585;SDS011;6358;50.760;0.282;2024-01-15T09:41:59;12.43;;;8.70;;
12585;SDS011;6358;50.760;0.282;2024-01-15T09:44:25;12.73;;;8.50;;
12585;SDS011;6358;50.760;0.282;2024-01-15T09:46:53;10.43;;;7.47;;
12585;SDS011;6358;50.760;0.282;2024-01-15T09:49:19;13.97;;;7.97;;
12585;SDS011;6358;50.760;0.282;2024-01-15T09:51:45;15.07;;;8.57;;
12585;SDS011;6358;50.760;0.282;2024-01-15T09:54:13;9.57;;;7.57;;
12585;SDS011;6358;50.760;0.282;2024-01-15T09:56:42;12.70;;;7.30;;
12585;SDS011;6358;50.760;0.282;2024-01-15T09:59:08;12.57;;;7.17;;
12585;SDS011;6358;50.760;0.282;2024-01-15T10:01:34;10.60;;;6.97;;
12585;SDS011;6358;50.760;0.282;2024-01-15T10:04:02;10.83;;;6.97;;
12585;SDS011;6358;50.760;0.282;2024-01-15T10:06:28;8.50;;;6.17;;
12585;SDS011;6358;50.760;0.282;2024-01-15T10:08:55;8.17;;;6.40;;
12585;SDS011;6358;50.760;0.282;2024-01-15T10:11:23;8.10;;;5.83;;
12585;SDS011;6358;50.760;0.282;2024-01-15T10:13:49;9.13;;;6.07;;
12585;SDS011;6358;50.760;0.282;2024-01-15T10:16:18;7.10;;;5.23;;
12585;SDS011;6358;50.760;0.282;2024-01-15T10:18:44;8.30;;;5.83;;
12585;SDS011;6358;50.760;0.282;2024-01-15T10:21:10;8.23;;;5.23;;
12585;SDS011;6358;50.760;0.282;2024-01-15T10:23:37;6.70;;;5.13;;
12585;SDS011;6358;50.760;0.282;2024-01-15T10:26:03;10.03;;;5.23;;
12585;SDS011;6358;50.760;0.282;2024-01-15T10:28:29;6.77;;;4.70;;
12585;SDS011;6358;50.760;0.282;2024-01-15T10:30:57;7.60;;;4.17;;
12585;SDS011;6358;50.760;0.282;2024-01-15T10:33:26;6.20;;;4.03;;
12585;SDS011;6358;50.760;0.282;2024-01-15T10:35:56;5.23;;;3.60;;
12585;SDS011;6358;50.760;0.282;2024-01-15T10:38:23;7.27;;;3.60;;
12585;SDS011;6358;50.760;0.282;2024-01-15T10:43:19;3.27;;;2.90;;
12585;SDS011;6358;50.760;0.282;2024-01-15T10:45:48;4.30;;;3.00;;
12585;SDS011;6358;50.760;0.282;2024-01-15T10:48:16;4.63;;;3.10;;
12585;SDS011;6358;50.760;0.282;2024-01-15T10:50:42;3.57;;;2.70;;
12585;SDS011;6358;50.760;0.282;2024-01-15T10:53:09;3.33;;;2.70;;
12585;SDS011;6358;50.760;0.282;2024-01-15T10:55:37;3.10;;;2.40;;
12585;SDS011;6358;50.760;0.282;2024-01-15T10:58:06;2.90;;;2.20;;
12585;SDS011;6358;50.760;0.282;2024-01-15T11:00:36;4.20;;;2.27;;
12585;SDS011;6358;50.760;0.282;2024-01-15T11:03:05;3.00;;;1.93;;
12585;SDS011;6358;50.760;0.282;2024-01-15T11:05:38;1.90;;;1.80;;
12585;SDS011;6358;50.760;0.282;2024-01-15T11:08:08;2.63;;;1.63;;
12585;SDS011;6358;50.760;0.282;2024-01-15T11:10:38;1.50;;;1.40;;
12585;SDS011;6358;50.760;0.282;2024-01-15T11:13:13;1.93;;;1.70;;
12585;SDS011;6358;50.760;0.282;2024-01-15T11:18:26;3.07;;;1.37;;
12585;SDS011;6358;50.760;0.282;2024-01-15T11:23:47;2.17;;;1.53;;
12585;SDS011;6358;50.760;0.282;2024-01-15T11:28:55;3.33;;;1.53;;
12585;SDS011;6358;50.760;0.282;2024-01-15T11:31:26;3.17;;;1.83;;
12585;SDS011;6358;50.760;0.282;2024-01-15T11:33:52;2.27;;;1.40;;
12585;SDS011;6358;50.760;0.282;2024-01-15T11:36:18;3.63;;;1.40;;
12585;SDS011;6358;50.760;0.282;2024-01-15T11:38:44;2.97;;;1.40;;
12585;SDS011;6358;50.760;0.282;2024-01-15T11:41:14;2.83;;;1.40;;
12585;SDS011;6358;50.760;0.282;2024-01-15T11:43:43;1.33;;;1.20;;
12585;SDS011;6358;50.760;0.282;2024-01-15T11:46:12;1.53;;;1.30;;
12585;SDS011;6358;50.760;0.282;2024-01-15T11:48:44;3.60;;;1.30;;
12585;SDS011;6358;50.760;0.282;2024-01-15T11:51:11;2.03;;;1.30;;
12585;SDS011;6358;50.760;0.282;2024-01-15T11:53:44;3.13;;;1.23;;
12585;SDS011;6358;50.760;0.282;2024-01-15T11:56:14;1.17;;;1.03;;
12585;SDS011;6358;50.760;0.282;2024-01-15T11:58:43;1.53;;;1.30;;
12585;SDS011;6358;50.760;0.282;2024-01-15T12:01:13;1.80;;;1.20;;
12585;SDS011;6358;50.760;0.282;2024-01-15T12:03:39;1.30;;;1.07;;
12585;SDS011;6358;50.760;0.282;2024-01-15T12:06:06;2.40;;;1.00;;
12585;SDS011;6358;50.760;0.282;2024-01-15T12:08:32;2.27;;;1.10;;
12585;SDS011;6358;50.760;0.282;2024-01-15T12:10:59;2.53;;;1.30;;
12585;SDS011;6358;50.760;0.282;2024-01-15T12:13:26;1.10;;;1.00;;
12585;SDS011;6358;50.760;0.282;2024-01-15T12:15:54;1.77;;;1.00;;
12585;SDS011;6358;50.760;0.282;2024-01-15T12:18:20;3.40;;;1.30;;
12585;SDS011;6358;50.760;0.282;2024-01-15T12:20:46;0.93;;;0.80;;
12585;SDS011;6358;50.760;0.282;2024-01-15T12:23:12;1.23;;;0.77;;
12585;SDS011;6358;50.760;0.282;2024-01-15T12:25:38;1.40;;;0.90;;
12585;SDS011;6358;50.760;0.282;2024-01-15T12:28:05;1.10;;;1.00;;
12585;SDS011;6358;50.760;0.282;2024-01-15T12:30:32;3.10;;;1.00;;
12585;SDS011;6358;50.760;0.282;2024-01-15T12:33:06;4.93;;;1.10;;
12585;SDS011;6358;50.760;0.282;2024-01-15T12:35:35;2.17;;;1.00;;
12585;SDS011;6358;50.760;0.282;2024-01-15T12:38:02;3.17;;;1.00;;
12585;SDS011;6358;50.760;0.282;2024-01-15T12:40:28;3.13;;;1.20;;
12585;SDS011;6358;50.760;0.282;2024-01-15T12:42:54;3.23;;;1.13;;
12585;SDS011;6358;50.760;0.282;2024-01-15T12:45:21;3.00;;;1.00;;
12585;SDS011;6358;50.760;0.282;2024-01-15T12:47:47;2.53;;;1.40;;
12585;SDS011;6358;50.760;0.282;2024-01-15T12:50:13;2.53;;;1.20;;
12585;SDS011;6358;50.760;0.282;2024-01-15T12:52:40;3.20;;;1.03;;
12585;SDS011;6358;50.760;0.282;2024-01-15T12:55:07;3.03;;;1.03;;
12585;SDS011;6358;50.760;0.282;2024-01-15T12:57:36;4.20;;;1.17;;
12585;SDS011;6358;50.760;0.282;2024-01-15T13:00:03;1.90;;;0.90;;
12585;SDS011;6358;50.760;0.282;2024-01-15T13:02:37;2.03;;;1.03;;
12585;SDS011;6358;50.760;0.282;2024-01-15T13:05:03;2.57;;;1.13;;
12585;SDS011;6358;50.760;0.282;2024-01-15T13:07:30;3.13;;;1.10;;
12585;SDS011;6358;50.760;0.282;2024-01-15T13:09:57;1.53;;;1.00;;
12585;SDS011;6358;50.760;0.282;2024-01-15T13:12:23;1.40;;;1.00;;
12585;SDS011;6358;50.760;0.282;2024-01-15T13:14:49;1.40;;;1.00;;
12585;SDS011;6358;50.760;0.282;2024-01-15T13:17:15;2.13;;;1.20;;
12585;SDS011;6358;50.760;0.282;2024-01-15T13:19:41;2.03;;;1.13;;
12585;SDS011;6358;50.760;0.282;2024-01-15T13:22:07;1.50;;;0.90;;
12585;SDS011;6358;50.760;0.282;2024-01-15T13:24:34;1.47;;;1.00;;
12585;SDS011;6358;50.760;0.282;2024-01-15T13:27:01;1.50;;;0.90;;
12585;SDS011;6358;50.760;0.282;2024-01-15T13:29:29;2.97;;;1.20;;
12585;SDS011;6358;50.760;0.282;2024-01-15T13:31:56;1.17;;;0.97;;
12585;SDS011;6358;50.760;0.282;2024-01-15T13:34:22;1.00;;;0.90;;
12585;SDS011;6358;50.760;0.282;2024-01-15T13:36:49;1.93;;;0.90;;
12585;SDS011;6358;50.760;0.282;2024-01-15T13:39:15;1.37;;;0.87;;
12585;SDS011;6358;50.760;0.282;2024-01-15T13:41:45;1.53;;;1.00;;
12585;SDS011;6358;50.760;0.282;2024-01-15T13:44:11;2.20;;;1.00;;
12585;SDS011;6358;50.760;0.282;2024-01-15T13:46:38;1.70;;;1.00;;
12585;SDS011;6358;50.760;0.282;2024-01-15T13:49:04;1.73;;;1.13;;
12585;SDS011;6358;50.760;0.282;2024-01-15T13:51:31;1.33;;;1.10;;
12585;SDS011;6358;50.760;0.282;2024-01-15T13:53:57;0.97;;;0.60;;
12585;SDS011;6358;50.760;0.282;2024-01-15T13:56:24;2.67;;;1.00;;
12585;SDS011;6358;50.760;0.282;2024-01-15T13:58:50;1.57;;;0.70;;
12585;SDS011;6358;50.760;0.282;2024-01-15T14:01:17;1.13;;;0.90;;
12585;SDS011;6358;50.760;0.282;2024-01-15T14:03:43;0.80;;;0.80;;
12585;SDS011;6358;50.760;0.282;2024-01-15T14:06:09;2.80;;;0.97;;
12585;SDS011;6358;50.760;0.282;2024-01-15T14:08:36;1.20;;;1.00;;
12585;SDS011;6358;50.760;0.282;2024-01-15T14:11:02;1.23;;;1.00;;
12585;SDS011;6358;50.760;0.282;2024-01-15T14:13:29;1.00;;;1.00;;
12585;SDS011;6358;50.760;0.282;2024-01-15T14:15:55;3.43;;;1.00;;
12585;SDS011;6358;50.760;0.282;2024-01-15T14:18:21;0.97;;;0.83;;
12585;SDS011;6358;50.760;0.282;2024-01-15T14:20:47;1.53;;;1.10;;
12585;SDS011;6358;50.760;0.282;2024-01-15T14:23:13;1.43;;;1.00;;
12585;SDS011;6358;50.760;0.282;2024-01-15T14:25:39;3.13;;;1.00;;
12585;SDS011;6358;50.760;0.282;2024-01-15T14:28:05;1.20;;;1.10;;
12585;SDS011;6358;50.760;0.282;2024-01-15T14:30:31;1.70;;;1.03;;
12585;SDS011;6358;50.760;0.282;2024-01-15T14:32:58;1.73;;;1.13;;
12585;SDS011;6358;50.760;0.282;2024-01-15T14:35:24;3.03;;;1.00;;
12585;SDS011;6358;50.760;0.282;2024-01-15T14:37:50;2.17;;;0.90;;
12585;SDS011;6358;50.760;0.282;2024-01-15T14:40:16;2.53;;;0.93;;
12585;SDS011;6358;50.760;0.282;2024-01-15T14:42:43;5.23;;;1.00;;
12585;SDS011;6358;50.760;0.282;2024-01-15T14:45:09;1.17;;;1.00;;
12585;SDS011;6358;50.760;0.282;2024-01-15T14:47:39;0.93;;;0.80;;
12585;SDS011;6358;50.760;0.282;2024-01-15T14:50:06;0.80;;;0.80;;
12585;SDS011;6358;50.760;0.282;2024-01-15T14:52:33;1.87;;;0.90;;
12585;SDS011;6358;50.760;0.282;2024-01-15T14:54:59;2.33;;;1.00;;
12585;SDS011;6358;50.760;0.282;2024-01-15T14:57:25;3.17;;;0.93;;
12585;SDS011;6358;50.760;0.282;2024-01-15T14:59:51;2.00;;;0.97;;
12585;SDS011;6358;50.760;0.282;2024-01-15T15:02:18;2.47;;;0.90;;
12585;SDS011;6358;50.760;0.282;2024-01-15T15:04:44;0.93;;;0.90;;
12585;SDS011;6358;50.760;0.282;2024-01-15T15:07:10;1.43;;;0.80;;